DAAGGBYD

Guest
Details From DAAG - Alger Houari Boumediene
To GBYD - Banjul Intl
Flight Number -
Tags Generated
Created
Modified
Stats Distance 1,762 nm / 3,262 km
Max Altitude 0 ft / 0 m
Waypoints 3
Social Downloads 2
Likes 0
Share VATSIM

Download

Looking for another format? Having issues loading an existing format? Contact us
Advertisement - Login to hide

Notes

Generated

Route

DAAG ND GBYD

ID Type Via Altitude Latitude Longitude Leg Dist Tot Dist Heading (true) Name
O DAAG APT - 0 ft / 0 m 36.69213˚ 3.17083˚ - 0 nm - -
ND NDB - 0 ft / 0 m 13.34538˚ -16.65744˚ 1761 nm 1761 nm 222° / 214° BANJUL NDB
O GBYD APT - 0 ft / 0 m 13.34855˚ -16.66481˚ 0 nm 1761 nm 294° / 294° -

Altitude Profile

Advertisement - Login to hide

Weather


0- 5 10 15 20 25 30 35+ Temperature / ° C

Clouds and Precipitation
Forecast for 2017-12-13 06:00 UTC. Updated 22 minutes ago

Ground ~20,000 ft ~40,000 ft Winds

DAAG

Details ICAO DAAG (ALG)
Name Alger Houari Boumediene
Region Algeria
Timezone Africa/Algiers (UTC+1.0)
Stats Elevation 82 ft / 25 m (AMSL)
Location 36.697521° 3.213079°
Runways 2
Magnetic Variation 1.057° E

METAR

DAAG 130130Z VRB02KT 9999 FEW020TCU SCT043 11/10 Q1024

Decode

TAF

TAF DAAG 122300Z 1300/1324 28010KT 9999 FEW020 SCT040 BKN100 PROB40 TEMPO 1300/1307 5000 -RA FEW023CB

Decode

Departure Runways

ID Width Length Bearing (true) Bearing (mag) Surface Threshold Offset Overrun Length
05 197 ft / 60 m 11,459 ft / 3,493 m 52.87° 51.81° Asphalt 0 ft / 0 m 0 ft / 0 m
09 148 ft / 45 m 11,442 ft / 3,487 m 91.75° 90.69° Asphalt 0 ft / 0 m 1,017 ft / 310 m
23 197 ft / 60 m 11,459 ft / 3,493 m 232.89° 231.83° Asphalt 0 ft / 0 m 0 ft / 0 m
27 148 ft / 45 m 11,442 ft / 3,487 m 271.78° 270.72° Asphalt 0 ft / 0 m 0 ft / 0 m

GBYD

Details ICAO GBYD (BJL)
Name Banjul Intl
Region The Gambia
Timezone Africa/Banjul (UTC+0.0)
Stats Elevation 95 ft / 29 m (AMSL)
Location 13.337960° -16.652206°
Runways 1
Magnetic Variation 7.312° W

METAR

GBYD 130100Z 00000KT 9000 SKC 19/16 Q1013

Decode

TAF

TAF GBYD 122330Z 1300/1406 01008KT 8000 NSC= TAF LFPB 122300Z 1300/1324 20012KT CAVOK BECMG 1303/1305 20015G25KT BKN010 TEMPO 1305/1309 20015G30KT 4000 RA BKN008 TEMPO 1315/1320 20015G30KT 3000 RA BKN008 BECMG 1320/1322 25015G25KT SCT020 TEMPO 1322/1324 25015G30KT 4000 -SHRA BKN020TCU PROB40 TEMPO 1322/1324 25020G35KT

Decode

Destination Runways

ID Width Length Bearing (true) Bearing (mag) Surface Threshold Offset Overrun Length
14 148 ft / 45 m 11,825 ft / 3,604 m 130.82° 138.13° Asphalt 500 ft / 152 m 197 ft / 60 m
32 148 ft / 45 m 11,825 ft / 3,604 m 310.83° 318.14° Asphalt 500 ft / 152 m 393 ft / 120 m